Time;durP1;ratioP1;P1;durP2;ratioP2;P2;SDS_P1;SDS_P2;PMS_P1;PMS_P2;Temp;Humidity;BMP_temperature;BMP_pressure;BME280_temperature;BME280_humidity;BME280_pressure;Samples;Min_cycle;Max_cycle;Signal;HPM_P1;HPM_P2
2022/11/23 00:01:24;;;;;;;;;;;;;;;22.19;41.89;93855.41;6096577;19;2152;-67
2022/11/23 00:03:27;;;;;;;;;;;;;;;22.12;41.74;93851.06;6120099;19;1903;-68
2022/11/23 00:05:31;;;;;;;;;;;;;;;22.12;42.23;93843.03;6122260;19;2128;-67
2022/11/23 00:07:34;;;;;;;;;;;;;;;22.10;42.27;93842.47;6119684;19;2706;-67
2022/11/23 00:09:38;;;;;;;;;;;;;;;22.14;42.51;93848.16;6119156;19;2092;-67
2022/11/23 00:11:44;;;;;;;;;;;;;;;22.13;42.38;93841.16;6110221;19;2024;-67
2022/11/23 00:13:47;;;;;;;;;;;;;;;22.15;42.57;93846.28;6109140;19;2207;-67
2022/11/23 00:15:51;;;;;;;;;;;;;;;22.18;42.14;93848.44;6121104;19;1833;-67
2022/11/23 00:17:54;;;;;;;;;;;;;;;22.15;42.01;93849.75;6118178;19;1593;-67
2022/11/23 00:19:57;;;;;;;;;;;;;;;22.18;42.06;93859.16;6120916;19;1656;-67
2022/11/23 00:22:01;;;;;;;;;;;;;;;22.12;42.14;93867.09;6119722;19;2096;-68
2022/11/23 00:24:04;;;;;;;;;;;;;;;22.15;42.10;93867.69;6097400;19;2009;-67
2022/11/23 00:26:07;;;;;;;;;;;;;;;22.12;42.05;93871.66;6119119;19;1989;-67
2022/11/23 00:28:13;;;;;;;;;;;;;;;22.12;42.59;93868.97;6119166;19;2803;-67
2022/11/23 00:30:17;;;;;;;;;;;;;;;22.11;42.41;93870.06;6118564;19;2001;-66
2022/11/23 00:32:20;;;;;;;;;;;;;;;22.11;42.25;93857.47;6119202;19;2150;-67
2022/11/23 00:34:23;;;;;;;;;;;;;;;22.15;41.86;93844.41;6109369;19;1870;-66
2022/11/23 00:36:28;;;;;;;;;;;;;;;22.13;42.26;93852.66;6105905;19;2138;-67
2022/11/23 00:38:31;;;;;;;;;;;;;;;22.11;42.34;93862.81;6117609;19;1274;-66
2022/11/23 00:40:35;;;;;;;;;;;;;;;22.11;42.28;93860.16;6119594;19;1918;-67
2022/11/23 00:42:38;;;;;;;;;;;;;;;22.12;41.96;93851.06;6119034;19;1736;-66
2022/11/23 00:44:44;;;;;;;;;;;;;;;22.12;42.25;93851.06;6119008;19;1867;-67
2022/11/23 00:46:47;;;;;;;;;;;;;;;22.15;42.48;93859.66;6095886;19;2066;-67
2022/11/23 00:48:51;;;;;;;;;;;;;;;22.12;42.36;93860.97;6117776;19;2072;-67
2022/11/23 00:50:55;;;;;;;;;;;;;;;22.16;42.19;93863.94;6116158;19;2115;-67
2022/11/23 00:52:58;;;;;;;;;;;;;;;22.15;42.24;93875.72;6118152;19;1859;-67
2022/11/23 00:55:01;;;;;;;;;;;;;;;22.11;42.35;93884.22;6119051;19;1959;-66
2022/11/23 00:57:05;;;;;;;;;;;;;;;22.16;42.49;93880.78;6109172;19;1934;-66
2022/11/23 00:59:08;;;;;;;;;;;;;;;22.15;42.09;93875.72;6107960;19;1911;-67
2022/11/23 01:01:15;;;;;;;;;;;;;;;22.16;42.32;93855.91;6116872;19;2008;-66
2022/11/23 01:03:18;;;;;;;;;;;;;;;22.12;42.52;93840.34;6117109;19;1979;-67
2022/11/23 01:05:22;;;;;;;;;;;;;;;22.13;42.49;93841.97;6119325;19;1924;-66
2022/11/23 01:07:25;;;;;;;;;;;;;;;22.12;42.57;93834.22;6118164;19;2353;-67
2022/11/23 01:09:28;;;;;;;;;;;;;;;22.12;42.52;93839.56;6094321;19;2169;-67
2022/11/23 01:11:32;;;;;;;;;;;;;;;22.11;42.27;93844.09;6119380;19;1818;-67
2022/11/23 01:13:36;;;;;;;;;;;;;;;22.13;42.80;93858.00;6118603;19;1795;-67
2022/11/23 01:15:39;;;;;;;;;;;;;;;22.11;42.77;93865.50;6117701;19;1799;-66
2022/11/23 01:17:45;;;;;;;;;;;;;;;22.15;42.58;93859.66;6119047;19;1927;-67
2022/11/23 01:19:48;;;;;;;;;;;;;;;22.13;42.49;93863.38;6109848;19;1736;-67
2022/11/23 01:21:52;;;;;;;;;;;;;;;22.13;42.81;93851.88;6105522;19;2657;-66
2022/11/23 01:23:55;;;;;;;;;;;;;;;22.12;42.90;93835.00;6117072;19;2133;-66
2022/11/23 01:25:59;;;;;;;;;;;;;;;22.11;43.10;93838.75;6115844;19;2089;-67
2022/11/23 01:28:02;;;;;;;;;;;;;;;22.12;42.75;93834.22;6120164;19;1852;-66
2022/11/23 01:30:06;;;;;;;;;;;;;;;22.13;43.05;93820.56;6117233;19;1854;-66
2022/11/23 01:32:09;;;;;;;;;;;;;;;22.10;42.94;93833.63;6093451;19;1913;-66
2022/11/23 01:34:15;;;;;;;;;;;;;;;22.11;42.46;93828.06;6115783;19;2199;-66
2022/11/23 01:36:20;;;;;;;;;;;;;;;22.08;42.58;93844.59;6116890;19;2135;-69
2022/11/23 01:38:24;;;;;;;;;;;;;;;22.15;42.38;93843.59;6116957;19;2232;-67
2022/11/23 01:40:27;;;;;;;;;;;;;;;22.12;42.86;93834.22;6116308;19;1913;-65
2022/11/23 01:42:41;;;;;;;;;;;;;;;22.12;42.41;93835.00;6110003;19;1952;-66
2022/11/23 01:44:45;;;;;;;;;;;;;;;22.13;42.72;93844.63;6105800;19;2193;-66
2022/11/23 01:46:48;;;;;;;;;;;;;;;22.08;43.00;93849.97;6116573;19;1853;-66
2022/11/23 01:48:53;;;;;;;;;;;;;;;22.12;42.88;93859.09;6118939;19;2068;-66
2022/11/23 01:51:00;;;;;;;;;;;;;;;22.09;42.93;93856.91;6116519;19;2115;-66
2022/11/23 01:53:04;;;;;;;;;;;;;;;22.10;42.71;93858.53;6117438;19;1714;-64
2022/11/23 01:55:08;;;;;;;;;;;;;;;22.11;42.62;93854.81;6092998;19;2226;-67
2022/11/23 01:57:14;;;;;;;;;;;;;;;22.11;43.05;93849.47;6114522;19;2051;-66
2022/11/23 01:59:19;;;;;;;;;;;;;;;22.15;42.59;93855.09;6117578;19;2172;-65
2022/11/23 02:01:22;;;;;;;;;;;;;;;22.12;42.96;93861.75;6113933;19;2106;-65
2022/11/23 02:03:26;;;;;;;;;;;;;;;22.10;42.69;93855.84;6121931;19;1967;-66
2022/11/23 02:05:31;;;;;;;;;;;;;;;22.08;42.47;93836.56;6110714;19;1963;-65
2022/11/23 02:07:37;;;;;;;;;;;;;;;22.07;42.59;93828.78;6110047;19;2307;-66
2022/11/23 02:09:41;;;;;;;;;;;;;;;22.08;42.98;93838.41;6122740;19;1697;-66
2022/11/23 02:11:44;;;;;;;;;;;;;;;22.06;42.95;93841.38;6122643;19;1849;-66
2022/11/23 02:13:49;;;;;;;;;;;;;;;22.12;42.54;93837.69;6122431;19;2143;-67
2022/11/23 02:15:52;;;;;;;;;;;;;;;22.15;42.68;93832.91;6119652;19;1704;-65
2022/11/23 02:17:56;;;;;;;;;;;;;;;22.14;42.62;93837.44;6101787;19;2022;-67
2022/11/23 02:20:05;;;;;;;;;;;;;;;22.11;42.56;93844.09;6124285;19;1903;-66
2022/11/23 02:22:11;;;;;;;;;;;;;;;22.12;42.52;93843.03;6121280;19;2042;-67
2022/11/23 02:24:23;;;;;;;;;;;;;;;22.10;42.78;93842.47;6122394;19;2112;-66
2022/11/23 02:26:30;;;;;;;;;;;;;;;22.14;43.18;93818.72;6121897;19;1908;-66
2022/11/23 02:28:35;;;;;;;;;;;;;;;22.10;43.53;93807.69;6109750;19;2529;-64
2022/11/23 02:30:40;;;;;;;;;;;;;;;22.11;43.85;93824.56;6115035;19;2308;-68
2022/11/23 02:32:44;;;;;;;;;;;;;;;22.16;43.42;93818.47;6124188;19;2337;-66
2022/11/23 02:34:47;;;;;;;;;;;;;;;22.16;43.74;93813.91;6121461;19;1927;-66
2022/11/23 02:36:52;;;;;;;;;;;;;;;22.12;43.72;93808.25;6123529;19;2087;-65
2022/11/23 02:38:56;;;;;;;;;;;;;;;22.07;43.73;93800.16;6122393;19;2091;-67
2022/11/23 02:40:59;;;;;;;;;;;;;;;22.17;43.73;93793.31;6098720;19;1911;-66
2022/11/23 02:43:05;;;;;;;;;;;;;;;22.21;43.42;93789.09;6124614;19;1905;-68
2022/11/23 02:45:17;;;;;;;;;;;;;;;22.15;43.80;93788.22;6121202;19;1735;-66
2022/11/23 02:47:20;;;;;;;;;;;;;;;22.18;43.51;93800.28;6121346;19;1032;-66
2022/11/23 02:49:23;;;;;;;;;;;;;;;22.20;43.72;93795.50;6120944;19;2119;-67
2022/11/23 02:51:27;;;;;;;;;;;;;;;22.19;43.30;93780.50;6110728;19;1902;-65
2022/11/23 02:53:30;;;;;;;;;;;;;;;22.18;43.74;93782.38;6108714;19;2092;-67
2022/11/23 02:55:34;;;;;;;;;;;;;;;22.17;43.68;93772.75;6118588;19;1829;-65
2022/11/23 02:57:37;;;;;;;;;;;;;;;22.16;43.91;93770.31;6121069;19;1924;-64
2022/11/23 02:59:43;;;;;;;;;;;;;;;22.13;43.63;93747.53;6120537;19;2103;-66
2022/11/23 03:01:46;;;;;;;;;;;;;;;22.17;43.55;93748.66;6119837;19;2073;-65
2022/11/23 03:03:49;;;;;;;;;;;;;;;22.13;43.79;93745.66;6099347;19;1945;-66
2022/11/23 03:05:53;;;;;;;;;;;;;;;22.17;43.87;93745.16;6122179;19;2077;-66
2022/11/23 03:07:56;;;;;;;;;;;;;;;22.17;43.83;93742.47;6121997;19;1929;-66
2022/11/23 03:09:59;;;;;;;;;;;;;;;22.16;44.05;93740.88;6121299;19;1940;-66
2022/11/23 03:12:03;;;;;;;;;;;;;;;22.15;43.76;93744.63;6121270;19;1910;-65
2022/11/23 03:14:06;;;;;;;;;;;;;;;22.18;43.45;93744.13;6110478;19;2239;-65
2022/11/23 03:16:12;;;;;;;;;;;;;;;22.19;43.69;93743.03;6108576;19;2100;-67
2022/11/23 03:18:15;;;;;;;;;;;;;;;22.19;43.69;93740.38;6122325;19;1972;-66
2022/11/23 03:20:19;;;;;;;;;;;;;;;22.16;43.42;93738.19;6120721;19;1806;-66
2022/11/23 03:22:22;;;;;;;;;;;;;;;22.19;43.41;93732.34;6121391;19;1732;-67
2022/11/23 03:24:25;;;;;;;;;;;;;;;22.17;43.46;93723.75;6119487;19;1941;-68
2022/11/23 03:26:29;;;;;;;;;;;;;;;22.18;43.55;93728.88;6099027;19;1986;-67
2022/11/23 03:28:32;;;;;;;;;;;;;;;22.16;43.98;93732.84;6120799;19;2075;-66
2022/11/23 03:30:36;;;;;;;;;;;;;;;22.15;43.76;93736.59;6121714;19;1857;-66
2022/11/23 03:32:42;;;;;;;;;;;;;;;22.14;43.63;93735.78;6119838;19;1793;-66
2022/11/23 03:34:45;;;;;;;;;;;;;;;22.18;43.73;93749.47;6123095;19;1987;-66
2022/11/23 03:36:48;;;;;;;;;;;;;;;22.16;44.03;93732.84;6115420;19;2269;-65
2022/11/23 03:38:52;;;;;;;;;;;;;;;22.11;43.71;93726.41;6103753;19;2241;-65
2022/11/23 03:40:55;;;;;;;;;;;;;;;22.07;43.68;93744.00;6120762;19;2071;-65
2022/11/23 03:42:58;;;;;;;;;;;;;;;22.22;43.96;93750.56;6118307;19;2101;-65
2022/11/23 03:45:01;;;;;;;;;;;;;;;22.25;43.65;93725.97;6120252;19;2168;-68
2022/11/23 03:47:05;;;;;;;;;;;;;;;22.20;43.87;93739.34;6120519;19;1723;-73
2022/11/23 03:49:11;;;;;;;;;;;;;;;22.21;43.89;93731.03;6099661;19;1739;-69
2022/11/23 03:51:14;;;;;;;;;;;;;;;22.19;44.04;93711.75;6117374;19;2095;-68
2022/11/23 03:53:18;;;;;;;;;;;;;;;22.16;44.01;93714.13;6121338;19;2078;-68
2022/11/23 03:55:21;;;;;;;;;;;;;;;22.17;44.04;93726.44;6123203;19;1819;-68
2022/11/23 03:57:24;;;;;;;;;;;;;;;22.19;44.53;93718.97;6119906;19;1802;-67
2022/11/23 03:59:27;;;;;;;;;;;;;;;22.17;44.20;93702.34;6119039;19;2064;-66
2022/11/23 04:01:31;;;;;;;;;;;;;;;22.20;44.23;93717.94;6101184;19;1995;-67
2022/11/23 04:03:34;;;;;;;;;;;;;;;22.24;44.32;93724.38;6121906;19;1987;-69
2022/11/23 04:05:40;;;;;;;;;;;;;;;21.43;38.99;93720.53;6121398;19;1881;-65
2022/11/23 04:07:43;;;;;;;;;;;;;;;20.66;41.26;93705.28;6117783;19;2100;-65
2022/11/23 04:09:46;;;;;;;;;;;;;;;19.79;40.82;93711.78;6119699;19;2005;-66
2022/11/23 04:11:50;;;;;;;;;;;;;;;19.37;40.99;93714.66;6096931;19;2001;-65
2022/11/23 04:13:53;;;;;;;;;;;;;;;18.97;40.51;93723.41;6121260;19;2205;-66
2022/11/23 04:15:56;;;;;;;;;;;;;;;18.58;40.61;93716.91;6120185;19;1914;-65
2022/11/23 04:18:00;;;;;;;;;;;;;;;18.80;40.70;93703.06;6117811;19;963;-66
2022/11/23 04:20:03;;;;;;;;;;;;;;;18.88;39.46;93714.16;6119272;19;1967;-66
2022/11/23 04:22:09;;;;;;;;;;;;;;;18.29;39.94;93723.91;6106441;19;1960;-66
2022/11/23 04:24:12;;;;;;;;;;;;;;;17.19;41.85;93707.19;6102569;19;2288;-66
2022/11/23 04:26:15;;;;;;;;;;;;;;;17.73;40.69;93717.97;6118957;19;1967;-65
2022/11/23 04:28:19;;;;;;;;;;;;;;;17.14;40.81;93717.66;6118169;19;1952;-66
2022/11/23 04:30:22;;;;;;;;;;;;;;;17.11;42.17;93719.94;6119880;19;2015;-65
2022/11/23 04:32:25;;;;;;;;;;;;;;;18.22;40.82;93721.38;6117570;19;2180;-67
2022/11/23 04:34:29;;;;;;;;;;;;;;;19.40;39.34;93730.16;6094797;19;2043;-66
2022/11/23 04:36:32;;;;;;;;;;;;;;;20.12;38.97;93720.91;6116533;19;2195;-67
2022/11/23 04:38:38;;;;;;;;;;;;;;;20.64;38.50;93695.91;6120118;19;1928;-67
2022/11/23 04:40:41;;;;;;;;;;;;;;;20.89;38.20;93698.13;6120051;19;2019;-67
2022/11/23 04:42:44;;;;;;;;;;;;;;;21.06;37.90;93720.28;6119739;19;1962;-68
2022/11/23 04:44:48;;;;;;;;;;;;;;;21.15;38.05;93704.63;6117696;19;1913;-67
2022/11/23 04:46:51;;;;;;;;;;;;;;;21.23;38.20;93709.59;6094896;19;1812;-66
2022/11/23 04:48:55;;;;;;;;;;;;;;;21.30;38.16;93714.75;6115983;19;1136;-66
2022/11/23 04:50:58;;;;;;;;;;;;;;;21.34;38.17;93723.84;6116872;19;1977;-66
2022/11/23 04:53:01;;;;;;;;;;;;;;;21.37;37.99;93740.22;6117607;19;2079;-65
2022/11/23 04:55:08;;;;;;;;;;;;;;;21.42;38.29;93729.59;6119544;19;1911;-67
2022/11/23 04:57:11;;;;;;;;;;;;;;;21.50;38.49;93740.91;6106045;19;1790;-66
2022/11/23 04:59:14;;;;;;;;;;;;;;;21.52;38.00;93757.50;6106909;19;1962;-67
2022/11/23 05:01:18;;;;;;;;;;;;;;;21.52;37.98;93752.97;6116943;19;2053;-66
2022/11/23 05:03:21;;;;;;;;;;;;;;;21.52;38.27;93752.97;6115156;19;1954;-67
2022/11/23 05:05:24;;;;;;;;;;;;;;;21.53;38.51;93743.88;6115714;19;1945;-67
2022/11/23 05:07:27;;;;;;;;;;;;;;;21.55;38.44;93762.34;6115324;19;1903;-65
2022/11/23 05:09:31;;;;;;;;;;;;;;;21.55;38.51;93765.84;6092366;19;1811;-68
2022/11/23 05:11:37;;;;;;;;;;;;;;;21.58;38.72;93769.88;6119970;19;2290;-68
2022/11/23 05:13:43;;;;;;;;;;;;;;;21.56;38.76;93772.78;6116105;19;1827;-66
2022/11/23 05:15:46;;;;;;;;;;;;;;;21.58;38.88;93776.03;6118496;19;2188;-67
2022/11/23 05:17:49;;;;;;;;;;;;;;;;;;6117225;19;2091;-66
2022/11/23 05:19:52;;;;;;;;;;;;;;;21.59;38.80;93758.94;6105058;19;2051;-67
2022/11/23 05:21:56;;;;;;;;;;;;;;;21.58;38.69;93759.19;6103401;19;1850;-66
2022/11/23 05:23:59;;;;;;;;;;;;;;;21.32;39.09;93766.88;6114366;19;1045;-64
2022/11/23 05:26:02;;;;;;;;;;;;;;;18.31;41.12;93761.72;6114171;19;2339;-65
2022/11/23 05:28:08;;;;;;;;;;;;;;;17.54;41.99;93764.97;6109465;19;1057;-65
2022/11/23 05:30:12;;;;;;;;;;;;;;;16.00;45.51;93755.97;6112365;19;1296;-64
2022/11/23 05:32:16;;;;;;;;;;;;;;;17.39;42.93;93760.06;6089556;19;1895;-65
2022/11/23 05:34:19;;;;;;;;;;;;;;;17.13;43.16;93763.81;6112738;19;1786;-64
2022/11/23 05:36:22;;;;;;;;;;;;;;;17.62;41.07;93763.88;6113195;19;1043;-64
2022/11/23 05:38:25;;;;;;;;;;;;;;;17.62;41.30;93751.41;6112209;19;1144;-65
2022/11/23 05:40:34;;;;;;;;;;;;;;;17.54;40.96;93745.59;6115772;19;1022;-66
2022/11/23 05:42:37;;;;;;;;;;;;;;;17.96;40.39;93769.59;6107636;19;1625;-64
2022/11/23 05:44:43;;;;;;;;;;;;;;;17.97;40.07;93753.41;6104327;19;1348;-64
2022/11/23 05:46:46;;;;;;;;;;;;;;;17.35;41.08;93744.78;6115510;19;958;-64
2022/11/23 05:48:50;;;;;;;;;;;;;;;17.74;40.45;93742.72;6116443;19;1121;-63
2022/11/23 05:50:53;;;;;;;;;;;;;;;17.48;40.53;93735.88;6116035;19;1560;-64
2022/11/23 05:52:57;;;;;;;;;;;;;;;17.66;40.31;93736.63;6115750;19;1853;-64
2022/11/23 05:55:00;;;;;;;;;;;;;;;17.71;39.73;93743.13;6092370;19;1588;-63
2022/11/23 05:57:04;;;;;;;;;;;;;;;18.08;40.38;93744.69;6116245;19;1061;-66
2022/11/23 05:59:07;;;;;;;;;;;;;;;19.29;39.75;93749.66;6115850;19;962;-67
2022/11/23 06:01:13;;;;;;;;;;;;;;;20.01;39.05;93754.56;6116458;19;1609;-67
2022/11/23 06:03:16;;;;;;;;;;;;;;;20.39;38.83;93765.66;6116336;19;1120;-67
2022/11/23 06:05:20;;;;;;;;;;;;;;;20.58;37.97;93761.72;6104658;19;1536;-68
2022/11/23 06:07:23;;;;;;;;;;;;;;;20.73;38.02;93769.16;6103275;19;1269;-68
2022/11/23 06:09:26;;;;;;;;;;;;;;;20.81;37.55;93766.09;6116497;19;1667;-67
2022/11/23 06:11:31;;;;;;;;;;;;;;;20.88;37.51;93752.56;6115253;19;1853;-68
2022/11/23 06:13:34;;;;;;;;;;;;;;;20.93;37.24;93721.41;6115060;19;1093;-68
2022/11/23 06:15:37;;;;;;;;;;;;;;;21.00;37.58;93742.63;6114116;19;967;-65
2022/11/23 06:17:43;;;;;;;;;;;;;;;21.05;37.40;93752.56;6093609;19;1796;-64
2022/11/23 06:19:47;;;;;;;;;;;;;;;21.05;40.12;93750.69;6115625;19;1045;-66
2022/11/23 06:21:50;;;;;;;;;;;;;;;21.11;40.26;93763.06;6116463;19;1033;-68
2022/11/23 06:23:54;;;;;;;;;;;;;;;21.14;40.29;93778.63;6115995;19;994;-67
2022/11/23 06:26:00;;;;;;;;;;;;;;;21.20;40.10;93777.66;6114594;19;983;-66
2022/11/23 06:28:04;;;;;;;;;;;;;;;21.29;41.33;93780.72;6104055;19;1472;-70
2022/11/23 06:30:08;;;;;;;;;;;;;;;21.35;41.51;93795.75;6103928;19;1350;-66
2022/11/23 06:32:11;;;;;;;;;;;;;;;21.38;42.20;93786.44;6115544;19;1874;-68
2022/11/23 06:34:17;;;;;;;;;;;;;;;21.42;41.29;93771.53;6114285;19;986;-69
2022/11/23 06:36:21;;;;;;;;;;;;;;;21.44;40.55;93775.56;6115385;19;1080;-68
2022/11/23 06:38:24;;;;;;;;;;;;;;;21.35;41.44;93770.91;6116140;19;1038;-67
2022/11/23 06:40:27;;;;;;;;;;;;;;;21.41;40.38;93769.94;6093636;19;1740;-67
2022/11/23 06:42:31;;;;;;;;;;;;;;;21.42;40.68;93767.00;6114184;19;1057;-67
2022/11/23 06:44:34;;;;;;;;;;;;;;;21.44;40.13;93774.78;6116302;19;946;-66
2022/11/23 06:46:37;;;;;;;;;;;;;;;21.47;40.33;93774.28;6115669;19;1371;-66
2022/11/23 06:48:40;;;;;;;;;;;;;;;21.50;40.15;93773.78;6117969;19;1050;-66
2022/11/23 06:50:46;;;;;;;;;;;;;;;21.52;40.40;93768.19;6108424;19;1300;-67
2022/11/23 06:52:50;;;;;;;;;;;;;;;21.49;41.24;93782.06;6109106;19;1845;-69
2022/11/23 06:54:53;;;;;;;;;;;;;;;21.44;40.99;93790.81;6119762;19;1495;-66
2022/11/23 06:56:56;;;;;;;;;;;;;;;21.41;40.66;93777.94;6120320;19;1050;-69
2022/11/23 06:58:59;;;;;;;;;;;;;;;21.45;40.66;93787.91;6119449;19;1021;-72
2022/11/23 07:01:03;;;;;;;;;;;;;;;21.46;40.86;93783.34;6121748;19;1279;-68
2022/11/23 07:03:06;;;;;;;;;;;;;;;21.50;40.68;93784.47;6096729;19;1254;-67
2022/11/23 07:05:10;;;;;;;;;;;;;;;21.51;40.37;93779.94;6118616;19;1136;-69
2022/11/23 07:07:16;;;;;;;;;;;;;;;21.45;40.84;93774.53;6119221;19;1057;-67
2022/11/23 07:09:20;;;;;;;;;;;;;;;21.52;40.43;93760.19;6121865;19;1036;-67
2022/11/23 07:11:23;;;;;;;;;;;;;;;21.53;40.80;93783.97;6121789;19;1045;-68
2022/11/23 07:13:26;;;;;;;;;;;;;;;;;;6107488;19;1857;-67
2022/11/23 07:15:29;;;;;;;;;;;;;;;21.56;40.58;93783.47;6109781;19;1243;-67
2022/11/23 07:17:32;;;;;;;;;;;;;;;21.60;40.53;93789.16;6121564;19;946;-68
2022/11/23 07:19:36;;;;;;;;;;;;;;;21.57;40.87;93782.44;6120718;19;1132;-68
2022/11/23 07:21:39;;;;;;;;;;;;;;;21.59;41.18;93777.63;6121301;19;1069;-67
2022/11/23 07:23:45;;;;;;;;;;;;;;;21.61;41.07;93769.38;6121462;19;1543;-66
2022/11/23 07:25:48;;;;;;;;;;;;;;;21.64;41.00;93780.38;6098210;19;1943;-67
2022/11/23 07:27:56;;;;;;;;;;;;;;;21.64;40.78;93775.03;6117890;19;994;-67
2022/11/23 07:29:59;;;;;;;;;;;;;;;21.68;40.85;93775.34;6119211;19;1038;-67
2022/11/23 07:32:02;;;;;;;;;;;;;;;21.65;40.92;93787.34;6118910;19;1846;-68
2022/11/23 07:34:08;;;;;;;;;;;;;;;21.63;40.82;93786.78;6120189;19;1045;-67
2022/11/23 07:36:11;;;;;;;;;;;;;;;21.62;41.03;93771.00;6110463;19;1741;-67
2022/11/23 07:38:15;;;;;;;;;;;;;;;21.59;40.66;93772.28;6109648;19;1491;-67
2022/11/23 07:40:20;;;;;;;;;;;;;;;21.60;40.60;93783.81;6119393;19;1030;-67
2022/11/23 07:42:24;;;;;;;;;;;;;;;21.59;40.19;93799.00;6118170;19;1125;-68
2022/11/23 07:44:27;;;;;;;;;;;;;;;21.58;40.19;93792.06;6119300;19;1343;-68
2022/11/23 07:46:30;;;;;;;;;;;;;;;21.59;40.18;93793.66;6120398;19;974;-68
2022/11/23 07:48:34;;;;;;;;;;;;;;;21.58;40.52;93780.56;6097815;19;1603;-67
2022/11/23 07:50:38;;;;;;;;;;;;;;;21.55;40.31;93776.53;6118994;19;1486;-67
2022/11/23 07:52:41;;;;;;;;;;;;;;;21.57;40.31;93787.78;6120173;19;1865;-67
2022/11/23 07:54:44;;;;;;;;;;;;;;;21.63;40.56;93784.13;6121137;19;1059;-67
2022/11/23 07:56:50;;;;;;;;;;;;;;;21.63;40.71;93786.00;6119589;19;1041;-67
2022/11/23 07:58:54;;;;;;;;;;;;;;;21.64;40.74;93775.03;6107947;19;1124;-66
2022/11/23 08:00:57;;;;;;;;;;;;;;;21.63;40.35;93784.13;6105593;19;1627;-67
2022/11/23 08:03:00;;;;;;;;;;;;;;;21.62;40.34;93782.47;6117985;19;1254;-66
2022/11/23 08:05:04;;;;;;;;;;;;;;;21.61;40.61;93791.56;6119569;19;1060;-66
2022/11/23 08:07:07;;;;;;;;;;;;;;;21.59;40.20;93784.84;6117860;19;1095;-66
2022/11/23 08:09:10;;;;;;;;;;;;;;;21.55;40.29;93787.22;6120340;19;1578;-66
2022/11/23 08:11:17;;;;;;;;;;;;;;;21.55;40.02;93792.56;6095810;19;1382;-66
2022/11/23 08:13:20;;;;;;;;;;;;;;;;;;6118587;19;1842;-67
2022/11/23 08:15:26;;;;;;;;;;;;;;;21.58;40.17;93773.34;6119326;19;950;-66
2022/11/23 08:17:30;;;;;;;;;;;;;;;21.54;39.62;93772.25;6117428;19;1015;-66
2022/11/23 08:19:33;;;;;;;;;;;;;;;21.55;39.72;93773.06;6118801;19;1014;-66
2022/11/23 08:21:36;;;;;;;;;;;;;;;21.55;39.82;93775.72;6106267;19;1312;-66
2022/11/23 08:23:40;;;;;;;;;;;;;;;21.55;39.80;93781.88;6107706;19;1553;-67
2022/11/23 08:25:43;;;;;;;;;;;;;;;21.56;39.90;93788.81;6118757;19;1048;-67
2022/11/23 08:27:46;;;;;;;;;;;;;;;;;;6118105;19;1058;-67
2022/11/23 08:29:49;;;;;;;;;;;;;;;21.56;39.47;93762.09;6119248;19;1025;-67
2022/11/23 08:31:55;;;;;;;;;;;;;;;21.57;39.30;93765.56;6118926;19;1239;-67
2022/11/23 08:33:58;;;;;;;;;;;;;;;21.57;39.56;93765.56;6094245;19;1841;-67
2022/11/23 08:36:05;;;;;;;;;;;;;;;21.58;39.45;93765.34;6118756;19;1013;-67
2022/11/23 08:38:09;;;;;;;;;;;;;;;21.59;39.64;93776.84;6117286;19;1056;-68
2022/11/23 08:40:13;;;;;;;;;;;;;;;21.58;39.88;93778.69;6119073;19;1295;-67
2022/11/23 08:42:16;;;;;;;;;;;;;;;21.59;40.17;93782.97;6118290;19;1017;-67
2022/11/23 08:44:19;;;;;;;;;;;;;;;21.61;40.26;93775.53;6107400;19;1291;-67
2022/11/23 08:46:23;;;;;;;;;;;;;;;21.63;40.40;93776.09;6107288;19;1336;-67
2022/11/23 08:48:29;;;;;;;;;;;;;;;21.64;40.59;93769.69;6116718;19;1697;-68
2022/11/23 08:50:34;;;;;;;;;;;;;;;21.65;40.50;93771.31;6119088;19;1061;-67
2022/11/23 08:52:37;;;;;;;;;;;;;;;21.66;40.49;93775.59;6118563;19;1842;-67
2022/11/23 08:54:40;;;;;;;;;;;;;;;21.63;40.41;93778.78;6117105;19;1129;-66
2022/11/23 08:56:44;;;;;;;;;;;;;;;21.58;40.61;93778.69;6095083;19;1703;-66
2022/11/23 08:58:47;;;;;;;;;;;;;;;21.57;40.77;93776.25;6118134;19;1057;-67
2022/11/23 09:00:51;;;;;;;;;;;;;;;21.59;40.85;93777.63;6118940;19;1009;-67
2022/11/23 09:02:55;;;;;;;;;;;;;;;21.59;40.67;93776.84;6116457;19;1266;-66
2022/11/23 09:05:03;;;;;;;;;;;;;;;21.60;40.92;93781.94;6118546;19;1037;-67
2022/11/23 09:07:06;;;;;;;;;;;;;;;21.62;40.49;93787.81;6104666;19;1405;-65
2022/11/23 09:09:10;;;;;;;;;;;;;;;21.66;40.82;93778.28;6110583;19;1283;-67
2022/11/23 09:11:14;;;;;;;;;;;;;;;21.70;40.72;93756.38;6114595;19;1591;-66
2022/11/23 09:13:18;;;;;;;;;;;;;;;21.73;40.77;93750.53;6117474;19;1845;-68
2022/11/23 09:15:22;;;;;;;;;;;;;;;21.70;41.01;93761.72;6117940;19;1145;-68
2022/11/23 09:17:25;;;;;;;;;;;;;;;21.71;40.81;93774.03;6116139;19;1124;-67
2022/11/23 09:19:28;;;;;;;;;;;;;;;21.70;40.57;93775.09;6094343;19;1324;-68
2022/11/23 09:21:36;;;;;;;;;;;;;;;21.67;40.48;93768.38;6117733;19;1057;-68
2022/11/23 09:23:40;;;;;;;;;;;;;;;21.71;40.07;93763.34;6117283;19;1015;-66
2022/11/23 09:25:47;;;;;;;;;;;;;;;21.69;39.87;93747.56;6116475;19;1066;-67
2022/11/23 09:27:50;;;;;;;;;;;;;;;21.65;39.75;93739.25;6117555;19;960;-69
2022/11/23 09:29:54;;;;;;;;;;;;;;;21.66;39.73;93740.03;6099542;19;1325;-68
2022/11/23 09:31:57;;;;;;;;;;;;;;;21.70;39.62;93745.69;6114561;19;1146;-67
2022/11/23 09:34:00;;;;;;;;;;;;;;;21.67;39.58;93737.09;6114986;19;1857;-67
2022/11/23 09:36:05;;;;;;;;;;;;;;;21.65;39.86;93733.91;6117177;19;1016;-67
2022/11/23 09:38:10;;;;;;;;;;;;;;;21.62;39.67;93736.25;6115267;19;985;-66
2022/11/23 09:40:16;;;;;;;;;;;;;;;21.63;40.08;93746.69;6115088;19;1025;-66
2022/11/23 09:42:27;;;;;;;;;;;;;;;21.64;40.26;93747.50;6093334;19;1422;-66
2022/11/23 09:44:35;;;;;;;;;;;;;;;21.64;40.55;93747.50;6116041;19;1021;-67
2022/11/23 09:46:38;;;;;;;;;;;;;;;;;;6117258;19;1315;-66
2022/11/23 09:48:57;;;;;;;;;;;;;;;21.60;40.20;93744.53;6114531;19;1148;-66
2022/11/23 09:51:02;;;;;;;;;;;;;;;21.59;40.41;93750.91;6115993;19;1280;-68
2022/11/23 09:53:09;;;;;;;;;;;;;;;21.67;40.84;93741.66;6093443;19;2095;-66
2022/11/23 09:55:18;;;;;;;;;;;;;;;21.72;40.38;93735.56;6114341;19;1125;-67
2022/11/23 09:57:23;;;;;;;;;;;;;;;21.70;40.89;93743.03;6116578;19;1038;-66
2022/11/23 09:59:35;;;;;;;;;;;;;;;21.70;40.49;93745.69;6116856;19;1002;-66
2022/11/23 10:01:38;;;;;;;;;;;;;;;21.68;40.97;93743.25;6116246;19;1389;-64
2022/11/23 10:03:43;;;;;;;;;;;;;;;21.73;40.89;93729.16;6104803;19;1830;-66
2022/11/23 10:05:49;;;;;;;;;;;;;;;21.76;40.72;93721.44;6103676;19;1582;-65
2022/11/23 10:08:00;;;;;;;;;;;;;;;21.76;40.50;93731.31;6114729;19;1025;-66
2022/11/23 10:10:10;;;;;;;;;;;;;;;21.76;40.61;93734.81;6115565;19;1010;-65
2022/11/23 10:12:20;;;;;;;;;;;;;;;21.77;40.49;93725.75;6116374;19;1028;-66
2022/11/23 10:14:35;;;;;;;;;;;;;;;21.78;40.51;93719.31;6115541;19;1865;-66
2022/11/23 10:16:40;;;;;;;;;;;;;;;21.79;40.92;93723.59;6097574;19;1583;-66
2022/11/23 10:18:51;;;;;;;;;;;;;;;21.76;40.70;93731.31;6115003;19;981;-66
2022/11/23 10:20:57;;;;;;;;;;;;;;;21.79;40.92;93744.19;6116614;19;1033;-67
2022/11/23 10:23:01;;;;;;;;;;;;;;;21.76;40.64;93744.69;6118031;19;1062;-67
2022/11/23 10:25:11;;;;;;;;;;;;;;;21.76;40.99;93737.47;6119049;19;1048;-66
2022/11/23 10:27:18;;;;;;;;;;;;;;;21.79;40.63;93738.84;6096539;19;1435;-67
2022/11/23 10:29:27;;;;;;;;;;;;;;;21.78;40.79;93727.34;6122125;19;1021;-66
2022/11/23 10:31:31;;;;;;;;;;;;;;;21.79;40.83;93733.50;6121830;19;1013;-66
2022/11/23 10:33:39;;;;;;;;;;;;;;;21.76;41.11;93729.47;6120084;19;1853;-65
2022/11/23 10:35:42;;;;;;;;;;;;;;;21.74;40.75;93728.09;6120382;19;1222;-65
2022/11/23 10:37:46;;;;;;;;;;;;;;;21.78;40.67;93726.53;6110750;19;1302;-64
2022/11/23 10:39:49;;;;;;;;;;;;;;;21.79;41.20;93728.16;6109662;19;1949;-66
2022/11/23 10:41:53;;;;;;;;;;;;;;;21.78;41.23;93732.69;6121369;19;1062;-66
2022/11/23 10:44:05;;;;;;;;;;;;;;;21.77;41.21;93720.41;6122231;19;1044;-65
2022/11/23 10:46:24;;;;;;;;;;;;;;;21.76;41.15;93723.31;6119027;19;960;-66
2022/11/23 10:48:35;;;;;;;;;;;;;;;21.73;41.33;93724.59;6121569;19;1140;-67
2022/11/23 10:50:39;;;;;;;;;;;;;;;21.73;41.43;93729.16;6107395;19;1527;-68
2022/11/23 10:52:51;;;;;;;;;;;;;;;21.73;41.08;93739.84;6121297;19;1057;-67
2022/11/23 10:54:55;;;;;;;;;;;;;;;21.72;40.75;93743.59;6118592;19;1849;-67
2022/11/23 10:57:00;;;;;;;;;;;;;;;21.68;41.17;93743.25;6119111;19;986;-67
2022/11/23 10:59:06;;;;;;;;;;;;;;;21.67;40.73;93752.34;6121135;19;1073;-68